Miami, FL - MIA

South Beach Bringing the Heat

The Miami International Airport is American Airlines' gateway to the Caribbean and South America and is a key connection point to the rest of the AAG route network. American Airlines boasts an impressive 75% of the passenger share out of Miami which equated to more than 34 million passengers alone in 2019.

MIA Based Pilots: 25   Miles to MIA: 310439
Flights from MIA: 371   Total Hours: 1627.42
Routes using MIA: 1827   From MIA: 832.86
Total Miles: 633057   Hours To MIA: 794.56
Miles from MIA: 322618   MIA Charts: Click Here
VATSIM METAR: KMIA 012053Z 08004KT 10SM FEW045 FEW250 26/14 A3011 RMK AO2 SLP197 T02560144 56013
 
         
View More: Click Here
   

 

Earn Your Wings

Interested in joining our MIA hub? Hover for more!

Your journey starts here. Your journey starts now. A whole new experience is at your fingertips.

Like what you see and ready to join the team?

A rewarding and memorable virtual airline experience awaits!